sensor_id;sensor_type;location;lat;lon;timestamp;P1;durP1;ratioP1;P2;durP2;ratioP2
31732;SDS011;18312;51.486;7.144;2023-07-20T00:02:23;5.07;;;2.15;;
31732;SDS011;18312;51.486;7.144;2023-07-20T00:04:52;4.70;;;2.50;;
31732;SDS011;18312;51.486;7.144;2023-07-20T00:07:19;3.80;;;2.33;;
31732;SDS011;18312;51.486;7.144;2023-07-20T00:09:46;8.23;;;2.80;;
31732;SDS011;18312;51.486;7.144;2023-07-20T00:12:13;4.65;;;2.47;;
31732;SDS011;18312;51.486;7.144;2023-07-20T00:14:40;3.80;;;2.40;;
31732;SDS011;18312;51.486;7.144;2023-07-20T00:17:06;4.70;;;2.60;;
31732;SDS011;18312;51.486;7.144;2023-07-20T00:19:33;6.15;;;2.50;;
31732;SDS011;18312;51.486;7.144;2023-07-20T00:22:01;14.27;;;4.20;;
31732;SDS011;18312;51.486;7.144;2023-07-20T00:24:30;7.97;;;3.25;;
31732;SDS011;18312;51.486;7.144;2023-07-20T00:26:57;8.10;;;3.10;;
31732;SDS011;18312;51.486;7.144;2023-07-20T00:29:25;6.32;;;3.20;;
31732;SDS011;18312;51.486;7.144;2023-07-20T00:31:52;7.25;;;2.60;;
31732;SDS011;18312;51.486;7.144;2023-07-20T00:34:19;11.65;;;3.22;;
31732;SDS011;18312;51.486;7.144;2023-07-20T00:36:45;7.57;;;3.55;;
31732;SDS011;18312;51.486;7.144;2023-07-20T00:39:15;8.05;;;3.20;;
31732;SDS011;18312;51.486;7.144;2023-07-20T00:41:42;11.68;;;3.38;;
31732;SDS011;18312;51.486;7.144;2023-07-20T00:44:08;7.65;;;2.97;;
31732;SDS011;18312;51.486;7.144;2023-07-20T00:46:35;5.38;;;2.92;;
31732;SDS011;18312;51.486;7.144;2023-07-20T00:49:02;8.82;;;3.28;;
31732;SDS011;18312;51.486;7.144;2023-07-20T00:51:29;8.50;;;3.42;;
31732;SDS011;18312;51.486;7.144;2023-07-20T00:53:56;7.22;;;3.55;;
31732;SDS011;18312;51.486;7.144;2023-07-20T00:56:24;9.35;;;3.38;;
31732;SDS011;18312;51.486;7.144;2023-07-20T00:58:51;9.02;;;3.28;;
31732;SDS011;18312;51.486;7.144;2023-07-20T01:01:18;8.07;;;3.58;;
31732;SDS011;18312;51.486;7.144;2023-07-20T01:03:45;6.28;;;3.67;;
31732;SDS011;18312;51.486;7.144;2023-07-20T01:06:14;10.10;;;4.38;;
31732;SDS011;18312;51.486;7.144;2023-07-20T01:08:52;9.90;;;5.05;;
31732;SDS011;18312;51.486;7.144;2023-07-20T01:11:28;10.05;;;4.05;;
31732;SDS011;18312;51.486;7.144;2023-07-20T01:14:03;6.20;;;3.55;;
31732;SDS011;18312;51.486;7.144;2023-07-20T01:16:32;8.23;;;4.72;;
31732;SDS011;18312;51.486;7.144;2023-07-20T01:18:59;10.73;;;3.53;;
31732;SDS011;18312;51.486;7.144;2023-07-20T01:21:28;8.73;;;4.60;;
31732;SDS011;18312;51.486;7.144;2023-07-20T01:24:05;6.22;;;3.78;;
31732;SDS011;18312;51.486;7.144;2023-07-20T01:27:05;11.82;;;4.13;;
31732;SDS011;18312;51.486;7.144;2023-07-20T01:30:01;6.72;;;3.90;;
31732;SDS011;18312;51.486;7.144;2023-07-20T01:32:42;5.90;;;3.88;;
31732;SDS011;18312;51.486;7.144;2023-07-20T01:35:10;4.95;;;3.55;;
31732;SDS011;18312;51.486;7.144;2023-07-20T01:37:40;7.20;;;3.72;;
31732;SDS011;18312;51.486;7.144;2023-07-20T01:40:08;7.13;;;4.18;;
31732;SDS011;18312;51.486;7.144;2023-07-20T01:42:38;7.10;;;4.07;;
31732;SDS011;18312;51.486;7.144;2023-07-20T01:45:09;5.05;;;3.33;;
31732;SDS011;18312;51.486;7.144;2023-07-20T01:47:36;10.05;;;3.58;;
31732;SDS011;18312;51.486;7.144;2023-07-20T01:50:04;5.28;;;3.65;;
31732;SDS011;18312;51.486;7.144;2023-07-20T01:54:59;13.70;;;4.35;;
31732;SDS011;18312;51.486;7.144;2023-07-20T01:57:25;6.50;;;4.40;;
31732;SDS011;18312;51.486;7.144;2023-07-20T01:59:52;7.90;;;4.35;;
31732;SDS011;18312;51.486;7.144;2023-07-20T02:02:19;8.18;;;4.65;;
31732;SDS011;18312;51.486;7.144;2023-07-20T02:04:46;12.20;;;5.07;;
31732;SDS011;18312;51.486;7.144;2023-07-20T02:07:14;5.78;;;4.60;;
31732;SDS011;18312;51.486;7.144;2023-07-20T02:09:40;10.23;;;4.95;;
31732;SDS011;18312;51.486;7.144;2023-07-20T02:12:07;9.63;;;4.72;;
31732;SDS011;18312;51.486;7.144;2023-07-20T02:14:34;14.75;;;5.38;;
31732;SDS011;18312;51.486;7.144;2023-07-20T02:17:01;9.50;;;4.97;;
31732;SDS011;18312;51.486;7.144;2023-07-20T02:19:29;7.45;;;4.85;;
31732;SDS011;18312;51.486;7.144;2023-07-20T02:21:56;12.95;;;5.60;;
31732;SDS011;18312;51.486;7.144;2023-07-20T02:24:24;9.05;;;5.38;;
31732;SDS011;18312;51.486;7.144;2023-07-20T02:26:51;12.20;;;6.43;;
31732;SDS011;18312;51.486;7.144;2023-07-20T02:29:18;12.48;;;6.20;;
31732;SDS011;18312;51.486;7.144;2023-07-20T02:31:44;16.15;;;6.22;;
31732;SDS011;18312;51.486;7.144;2023-07-20T02:34:11;10.82;;;7.22;;
31732;SDS011;18312;51.486;7.144;2023-07-20T02:36:38;13.77;;;7.22;;
31732;SDS011;18312;51.486;7.144;2023-07-20T02:39:07;16.27;;;7.37;;
31732;SDS011;18312;51.486;7.144;2023-07-20T02:41:35;18.67;;;6.90;;
31732;SDS011;18312;51.486;7.144;2023-07-20T02:44:02;15.65;;;7.55;;
31732;SDS011;18312;51.486;7.144;2023-07-20T02:46:29;18.42;;;8.02;;
31732;SDS011;18312;51.486;7.144;2023-07-20T02:48:56;10.93;;;7.50;;
31732;SDS011;18312;51.486;7.144;2023-07-20T02:51:22;19.38;;;8.35;;
31732;SDS011;18312;51.486;7.144;2023-07-20T02:53:49;23.42;;;9.02;;
31732;SDS011;18312;51.486;7.144;2023-07-20T02:56:16;18.45;;;8.05;;
31732;SDS011;18312;51.486;7.144;2023-07-20T02:58:44;17.58;;;8.90;;
31732;SDS011;18312;51.486;7.144;2023-07-20T03:01:11;19.98;;;9.25;;
31732;SDS011;18312;51.486;7.144;2023-07-20T03:03:40;23.42;;;9.48;;
31732;SDS011;18312;51.486;7.144;2023-07-20T03:06:11;21.27;;;9.45;;
31732;SDS011;18312;51.486;7.144;2023-07-20T03:08:39;23.23;;;8.93;;
31732;SDS011;18312;51.486;7.144;2023-07-20T03:11:06;23.15;;;9.38;;
31732;SDS011;18312;51.486;7.144;2023-07-20T03:13:33;20.42;;;8.55;;
31732;SDS011;18312;51.486;7.144;2023-07-20T03:16:01;21.02;;;9.73;;
31732;SDS011;18312;51.486;7.144;2023-07-20T03:18:28;20.77;;;9.32;;
31732;SDS011;18312;51.486;7.144;2023-07-20T03:20:54;20.83;;;9.20;;
31732;SDS011;18312;51.486;7.144;2023-07-20T03:23:21;22.88;;;10.18;;
31732;SDS011;18312;51.486;7.144;2023-07-20T03:25:48;22.23;;;10.00;;
31732;SDS011;18312;51.486;7.144;2023-07-20T03:28:15;21.40;;;10.70;;
31732;SDS011;18312;51.486;7.144;2023-07-20T03:30:41;26.35;;;11.25;;
31732;SDS011;18312;51.486;7.144;2023-07-20T03:33:09;24.92;;;9.65;;
31732;SDS011;18312;51.486;7.144;2023-07-20T03:35:36;21.38;;;10.23;;
31732;SDS011;18312;51.486;7.144;2023-07-20T03:38:03;22.42;;;10.35;;
31732;SDS011;18312;51.486;7.144;2023-07-20T03:40:30;20.25;;;10.13;;
31732;SDS011;18312;51.486;7.144;2023-07-20T03:42:57;19.58;;;9.00;;
31732;SDS011;18312;51.486;7.144;2023-07-20T03:45:23;21.58;;;8.85;;
31732;SDS011;18312;51.486;7.144;2023-07-20T03:47:50;20.83;;;8.60;;
31732;SDS011;18312;51.486;7.144;2023-07-20T03:50:18;15.77;;;8.82;;
31732;SDS011;18312;51.486;7.144;2023-07-20T03:52:45;15.98;;;7.78;;
31732;SDS011;18312;51.486;7.144;2023-07-20T03:55:12;19.15;;;7.93;;
31732;SDS011;18312;51.486;7.144;2023-07-20T03:57:38;16.02;;;8.02;;
31732;SDS011;18312;51.486;7.144;2023-07-20T04:00:06;14.50;;;7.88;;
31732;SDS011;18312;51.486;7.144;2023-07-20T04:02:33;19.27;;;8.43;;
31732;SDS011;18312;51.486;7.144;2023-07-20T04:05:00;18.83;;;8.50;;
31732;SDS011;18312;51.486;7.144;2023-07-20T04:07:28;17.42;;;8.63;;
31732;SDS011;18312;51.486;7.144;2023-07-20T04:09:55;23.48;;;9.63;;
31732;SDS011;18312;51.486;7.144;2023-07-20T04:12:22;16.10;;;8.95;;
31732;SDS011;18312;51.486;7.144;2023-07-20T04:14:48;21.73;;;10.25;;
31732;SDS011;18312;51.486;7.144;2023-07-20T04:17:15;20.88;;;9.15;;
31732;SDS011;18312;51.486;7.144;2023-07-20T04:19:42;19.92;;;10.57;;
31732;SDS011;18312;51.486;7.144;2023-07-20T04:22:08;29.98;;;13.15;;
31732;SDS011;18312;51.486;7.144;2023-07-20T04:24:36;28.90;;;13.55;;
31732;SDS011;18312;51.486;7.144;2023-07-20T04:27:03;31.73;;;16.67;;
31732;SDS011;18312;51.486;7.144;2023-07-20T04:29:30;40.72;;;17.02;;
31732;SDS011;18312;51.486;7.144;2023-07-20T04:31:57;36.83;;;17.63;;
31732;SDS011;18312;51.486;7.144;2023-07-20T04:34:24;37.63;;;17.58;;
31732;SDS011;18312;51.486;7.144;2023-07-20T04:36:50;37.63;;;18.05;;
31732;SDS011;18312;51.486;7.144;2023-07-20T04:39:18;36.30;;;18.00;;
31732;SDS011;18312;51.486;7.144;2023-07-20T04:41:46;33.67;;;18.30;;
31732;SDS011;18312;51.486;7.144;2023-07-20T04:44:13;36.60;;;17.92;;
31732;SDS011;18312;51.486;7.144;2023-07-20T04:46:40;39.92;;;18.05;;
31732;SDS011;18312;51.486;7.144;2023-07-20T04:49:07;34.38;;;17.35;;
31732;SDS011;18312;51.486;7.144;2023-07-20T04:51:33;35.92;;;17.58;;
31732;SDS011;18312;51.486;7.144;2023-07-20T04:54:00;34.47;;;17.13;;
31732;SDS011;18312;51.486;7.144;2023-07-20T04:56:27;31.13;;;17.25;;
31732;SDS011;18312;51.486;7.144;2023-07-20T04:58:55;29.15;;;16.77;;
31732;SDS011;18312;51.486;7.144;2023-07-20T05:01:22;35.28;;;17.55;;
31732;SDS011;18312;51.486;7.144;2023-07-20T05:03:49;32.00;;;18.13;;
31732;SDS011;18312;51.486;7.144;2023-07-20T05:06:15;37.78;;;17.70;;
31732;SDS011;18312;51.486;7.144;2023-07-20T05:08:42;35.10;;;18.08;;
31732;SDS011;18312;51.486;7.144;2023-07-20T05:11:09;33.47;;;18.15;;
31732;SDS011;18312;51.486;7.144;2023-07-20T05:13:36;34.22;;;18.17;;
31732;SDS011;18312;51.486;7.144;2023-07-20T05:16:04;31.42;;;17.70;;
31732;SDS011;18312;51.486;7.144;2023-07-20T05:18:31;38.17;;;17.42;;
31732;SDS011;18312;51.486;7.144;2023-07-20T05:20:58;30.98;;;17.63;;
31732;SDS011;18312;51.486;7.144;2023-07-20T05:23:24;29.95;;;16.33;;
31732;SDS011;18312;51.486;7.144;2023-07-20T05:25:53;38.13;;;17.27;;
31732;SDS011;18312;51.486;7.144;2023-07-20T05:28:21;29.02;;;16.45;;
31732;SDS011;18312;51.486;7.144;2023-07-20T05:30:47;24.70;;;14.32;;
31732;SDS011;18312;51.486;7.144;2023-07-20T05:33:17;28.60;;;15.13;;
31732;SDS011;18312;51.486;7.144;2023-07-20T05:35:44;26.83;;;15.15;;
31732;SDS011;18312;51.486;7.144;2023-07-20T05:38:11;26.92;;;15.02;;
31732;SDS011;18312;51.486;7.144;2023-07-20T05:40:39;26.90;;;15.30;;
31732;SDS011;18312;51.486;7.144;2023-07-20T05:43:07;26.75;;;14.63;;
31732;SDS011;18312;51.486;7.144;2023-07-20T05:45:34;24.88;;;14.82;;
31732;SDS011;18312;51.486;7.144;2023-07-20T05:48:01;20.67;;;12.43;;
31732;SDS011;18312;51.486;7.144;2023-07-20T05:50:29;24.17;;;13.02;;
31732;SDS011;18312;51.486;7.144;2023-07-20T05:52:56;21.20;;;12.73;;
31732;SDS011;18312;51.486;7.144;2023-07-20T05:55:22;21.17;;;13.07;;
31732;SDS011;18312;51.486;7.144;2023-07-20T05:57:49;21.83;;;12.13;;
31732;SDS011;18312;51.486;7.144;2023-07-20T06:00:16;21.52;;;11.70;;
31732;SDS011;18312;51.486;7.144;2023-07-20T06:02:44;17.27;;;10.90;;
31732;SDS011;18312;51.486;7.144;2023-07-20T06:05:12;17.60;;;11.77;;
31732;SDS011;18312;51.486;7.144;2023-07-20T06:07:40;19.65;;;11.13;;
31732;SDS011;18312;51.486;7.144;2023-07-20T06:10:07;18.02;;;11.00;;
31732;SDS011;18312;51.486;7.144;2023-07-20T06:12:34;25.25;;;11.63;;
31732;SDS011;18312;51.486;7.144;2023-07-20T06:15:01;20.60;;;13.13;;
31732;SDS011;18312;51.486;7.144;2023-07-20T06:17:29;18.90;;;11.95;;
31732;SDS011;18312;51.486;7.144;2023-07-20T06:19:55;19.33;;;11.93;;
31732;SDS011;18312;51.486;7.144;2023-07-20T06:22:22;20.75;;;11.93;;
31732;SDS011;18312;51.486;7.144;2023-07-20T06:24:50;17.08;;;10.65;;
31732;SDS011;18312;51.486;7.144;2023-07-20T06:27:17;16.02;;;10.85;;
31732;SDS011;18312;51.486;7.144;2023-07-20T06:29:44;12.48;;;7.30;;
31732;SDS011;18312;51.486;7.144;2023-07-20T06:32:10;11.15;;;6.18;;
31732;SDS011;18312;51.486;7.144;2023-07-20T06:34:38;6.28;;;5.32;;
31732;SDS011;18312;51.486;7.144;2023-07-20T06:37:05;7.13;;;4.82;;
31732;SDS011;18312;51.486;7.144;2023-07-20T06:39:32;5.05;;;4.55;;
31732;SDS011;18312;51.486;7.144;2023-07-20T06:42:00;6.30;;;4.72;;
31732;SDS011;18312;51.486;7.144;2023-07-20T06:44:27;5.35;;;4.45;;
31732;SDS011;18312;51.486;7.144;2023-07-20T06:46:53;5.32;;;3.50;;
31732;SDS011;18312;51.486;7.144;2023-07-20T06:49:24;5.20;;;4.75;;
31732;SDS011;18312;51.486;7.144;2023-07-20T06:51:51;6.70;;;4.80;;
31732;SDS011;18312;51.486;7.144;2023-07-20T06:54:17;5.45;;;4.85;;
31732;SDS011;18312;51.486;7.144;2023-07-20T06:56:44;5.15;;;4.65;;
31732;SDS011;18312;51.486;7.144;2023-07-20T06:59:12;6.60;;;4.88;;
31732;SDS011;18312;51.486;7.144;2023-07-20T07:01:39;5.03;;;4.50;;
31732;SDS011;18312;51.486;7.144;2023-07-20T07:04:05;6.40;;;5.20;;
31732;SDS011;18312;51.486;7.144;2023-07-20T07:06:32;9.25;;;6.00;;
31732;SDS011;18312;51.486;7.144;2023-07-20T07:08:59;5.93;;;5.40;;
31732;SDS011;18312;51.486;7.144;2023-07-20T07:11:26;5.82;;;5.22;;
31732;SDS011;18312;51.486;7.144;2023-07-20T07:13:53;7.50;;;6.00;;
31732;SDS011;18312;51.486;7.144;2023-07-20T07:16:21;6.32;;;5.65;;
31732;SDS011;18312;51.486;7.144;2023-07-20T07:18:49;8.35;;;6.25;;
31732;SDS011;18312;51.486;7.144;2023-07-20T07:21:17;7.07;;;6.35;;
31732;SDS011;18312;51.486;7.144;2023-07-20T07:23:43;7.72;;;6.93;;
31732;SDS011;18312;51.486;7.144;2023-07-20T07:26:11;8.55;;;6.53;;
31732;SDS011;18312;51.486;7.144;2023-07-20T07:28:38;7.93;;;7.13;;
31732;SDS011;18312;51.486;7.144;2023-07-20T07:31:04;7.18;;;6.22;;
31732;SDS011;18312;51.486;7.144;2023-07-20T07:33:33;6.05;;;5.32;;
31732;SDS011;18312;51.486;7.144;2023-07-20T07:36:00;5.80;;;5.28;;
31732;SDS011;18312;51.486;7.144;2023-07-20T07:38:27;6.57;;;4.55;;
31732;SDS011;18312;51.486;7.144;2023-07-20T07:40:53;6.90;;;5.10;;
31732;SDS011;18312;51.486;7.144;2023-07-20T07:43:20;10.23;;;4.93;;
31732;SDS011;18312;51.486;7.144;2023-07-20T07:45:47;4.93;;;4.43;;
31732;SDS011;18312;51.486;7.144;2023-07-20T07:48:14;8.07;;;5.97;;
31732;SDS011;18312;51.486;7.144;2023-07-20T07:50:42;8.15;;;5.90;;
31732;SDS011;18312;51.486;7.144;2023-07-20T07:53:08;8.98;;;6.65;;
31732;SDS011;18312;51.486;7.144;2023-07-20T07:55:35;13.50;;;7.78;;
31732;SDS011;18312;51.486;7.144;2023-07-20T07:58:02;11.90;;;8.02;;
31732;SDS011;18312;51.486;7.144;2023-07-20T08:00:29;13.68;;;8.77;;
31732;SDS011;18312;51.486;7.144;2023-07-20T08:02:55;11.93;;;8.52;;
31732;SDS011;18312;51.486;7.144;2023-07-20T08:05:22;12.15;;;8.52;;
31732;SDS011;18312;51.486;7.144;2023-07-20T08:07:50;16.45;;;10.10;;
31732;SDS011;18312;51.486;7.144;2023-07-20T08:10:17;14.68;;;9.73;;
31732;SDS011;18312;51.486;7.144;2023-07-20T08:12:44;11.18;;;7.55;;
31732;SDS011;18312;51.486;7.144;2023-07-20T08:15:11;11.35;;;7.22;;
31732;SDS011;18312;51.486;7.144;2023-07-20T08:17:39;11.02;;;8.10;;
31732;SDS011;18312;51.486;7.144;2023-07-20T08:20:07;17.67;;;11.10;;
31732;SDS011;18312;51.486;7.144;2023-07-20T08:22:37;19.25;;;11.35;;
31732;SDS011;18312;51.486;7.144;2023-07-20T08:25:05;16.60;;;11.43;;
31732;SDS011;18312;51.486;7.144;2023-07-20T08:27:32;16.23;;;11.00;;
31732;SDS011;18312;51.486;7.144;2023-07-20T08:29:59;16.20;;;11.02;;
31732;SDS011;18312;51.486;7.144;2023-07-20T08:32:26;14.85;;;10.75;;
31732;SDS011;18312;51.486;7.144;2023-07-20T08:34:53;16.70;;;11.25;;
31732;SDS011;18312;51.486;7.144;2023-07-20T08:37:19;15.38;;;11.00;;
31732;SDS011;18312;51.486;7.144;2023-07-20T08:39:46;19.10;;;12.85;;
31732;SDS011;18312;51.486;7.144;2023-07-20T08:42:14;19.90;;;12.30;;
31732;SDS011;18312;51.486;7.144;2023-07-20T08:44:42;19.52;;;11.80;;
31732;SDS011;18312;51.486;7.144;2023-07-20T08:47:10;15.20;;;10.80;;
31732;SDS011;18312;51.486;7.144;2023-07-20T08:49:38;14.05;;;9.45;;
31732;SDS011;18312;51.486;7.144;2023-07-20T08:52:06;12.35;;;7.65;;
31732;SDS011;18312;51.486;7.144;2023-07-20T08:54:33;13.60;;;9.73;;
31732;SDS011;18312;51.486;7.144;2023-07-20T08:57:01;9.80;;;7.80;;
31732;SDS011;18312;51.486;7.144;2023-07-20T08:59:31;11.65;;;8.50;;
31732;SDS011;18312;51.486;7.144;2023-07-20T09:01:58;13.50;;;8.98;;
31732;SDS011;18312;51.486;7.144;2023-07-20T09:04:26;13.00;;;8.00;;
31732;SDS011;18312;51.486;7.144;2023-07-20T09:06:53;11.55;;;8.75;;
31732;SDS011;18312;51.486;7.144;2023-07-20T09:09:20;8.48;;;7.47;;
31732;SDS011;18312;51.486;7.144;2023-07-20T09:11:47;9.68;;;7.55;;
31732;SDS011;18312;51.486;7.144;2023-07-20T09:14:14;7.55;;;5.85;;
31732;SDS011;18312;51.486;7.144;2023-07-20T09:16:49;6.28;;;5.68;;
31732;SDS011;18312;51.486;7.144;2023-07-20T09:19:19;6.20;;;5.55;;
31732;SDS011;18312;51.486;7.144;2023-07-20T09:21:47;5.38;;;4.45;;
31732;SDS011;18312;51.486;7.144;2023-07-20T09:24:17;5.20;;;4.75;;
31732;SDS011;18312;51.486;7.144;2023-07-20T09:29:13;6.90;;;5.78;;
31732;SDS011;18312;51.486;7.144;2023-07-20T09:31:40;7.60;;;4.85;;
31732;SDS011;18312;51.486;7.144;2023-07-20T09:34:08;5.07;;;3.92;;
31732;SDS011;18312;51.486;7.144;2023-07-20T09:36:35;4.30;;;3.10;;
31732;SDS011;18312;51.486;7.144;2023-07-20T09:39:03;1.52;;;1.42;;
31732;SDS011;18312;51.486;7.144;2023-07-20T09:41:30;3.60;;;1.77;;
31732;SDS011;18312;51.486;7.144;2023-07-20T09:44:06;3.00;;;1.65;;
31732;SDS011;18312;51.486;7.144;2023-07-20T09:46:41;2.15;;;1.80;;
31732;SDS011;18312;51.486;7.144;2023-07-20T09:49:10;2.58;;;1.42;;
31732;SDS011;18312;51.486;7.144;2023-07-20T09:51:37;1.33;;;1.23;;
31732;SDS011;18312;51.486;7.144;2023-07-20T09:54:04;3.15;;;1.38;;
31732;SDS011;18312;51.486;7.144;2023-07-20T09:56:32;4.95;;;1.10;;
31732;SDS011;18312;51.486;7.144;2023-07-20T09:58:59;0.88;;;0.70;;
31732;SDS011;18312;51.486;7.144;2023-07-20T10:01:26;0.98;;;0.90;;
31732;SDS011;18312;51.486;7.144;2023-07-20T10:03:55;0.77;;;0.60;;
31732;SDS011;18312;51.486;7.144;2023-07-20T10:06:27;1.85;;;0.90;;
31732;SDS011;18312;51.486;7.144;2023-07-20T10:11:26;2.38;;;1.35;;
31732;SDS011;18312;51.486;7.144;2023-07-20T10:13:58;1.33;;;0.88;;
31732;SDS011;18312;51.486;7.144;2023-07-20T10:16:26;1.17;;;0.50;;
31732;SDS011;18312;51.486;7.144;2023-07-20T10:18:59;2.30;;;1.10;;
31732;SDS011;18312;51.486;7.144;2023-07-20T10:21:32;1.05;;;0.80;;
31732;SDS011;18312;51.486;7.144;2023-07-20T10:24:01;3.20;;;0.77;;
31732;SDS011;18312;51.486;7.144;2023-07-20T10:26:30;2.75;;;0.70;;
31732;SDS011;18312;51.486;7.144;2023-07-20T10:28:56;1.85;;;0.65;;
31732;SDS011;18312;51.486;7.144;2023-07-20T10:31:24;1.05;;;0.60;;
31732;SDS011;18312;51.486;7.144;2023-07-20T10:36:24;3.75;;;0.40;;
31732;SDS011;18312;51.486;7.144;2023-07-20T10:38:54;0.60;;;0.50;;
31732;SDS011;18312;51.486;7.144;2023-07-20T10:43:57;0.80;;;0.22;;
31732;SDS011;18312;51.486;7.144;2023-07-20T10:46:41;1.27;;;0.43;;
31732;SDS011;18312;51.486;7.144;2023-07-20T10:49:10;0.43;;;0.40;;
31732;SDS011;18312;51.486;7.144;2023-07-20T10:51:39;1.05;;;0.40;;
31732;SDS011;18312;51.486;7.144;2023-07-20T10:54:08;1.38;;;0.38;;
31732;SDS011;18312;51.486;7.144;2023-07-20T10:56:56;0.43;;;0.35;;
31732;SDS011;18312;51.486;7.144;2023-07-20T10:59:36;0.80;;;0.55;;
31732;SDS011;18312;51.486;7.144;2023-07-20T11:02:05;1.02;;;0.57;;
31732;SDS011;18312;51.486;7.144;2023-07-20T11:04:40;0.70;;;0.40;;
31732;SDS011;18312;51.486;7.144;2023-07-20T11:07:07;1.23;;;0.70;;
31732;SDS011;18312;51.486;7.144;2023-07-20T11:09:36;1.60;;;0.32;;
31732;SDS011;18312;51.486;7.144;2023-07-20T11:14:40;1.33;;;0.50;;
31732;SDS011;18312;51.486;7.144;2023-07-20T11:17:11;0.70;;;0.57;;
31732;SDS011;18312;51.486;7.144;2023-07-20T11:19:38;2.85;;;0.47;;
31732;SDS011;18312;51.486;7.144;2023-07-20T11:22:06;1.25;;;0.70;;
31732;SDS011;18312;51.486;7.144;2023-07-20T11:24:37;0.68;;;0.32;;
31732;SDS011;18312;51.486;7.144;2023-07-20T11:27:05;1.48;;;0.40;;
31732;SDS011;18312;51.486;7.144;2023-07-20T11:29:31;0.82;;;0.30;;
31732;SDS011;18312;51.486;7.144;2023-07-20T11:31:58;1.75;;;0.70;;
31732;SDS011;18312;51.486;7.144;2023-07-20T11:34:26;0.80;;;0.28;;
31732;SDS011;18312;51.486;7.144;2023-07-20T11:36:53;2.42;;;0.40;;
31732;SDS011;18312;51.486;7.144;2023-07-20T11:39:21;0.85;;;0.30;;
31732;SDS011;18312;51.486;7.144;2023-07-20T11:41:52;1.50;;;0.50;;
31732;SDS011;18312;51.486;7.144;2023-07-20T11:44:20;0.38;;;0.30;;
31732;SDS011;18312;51.486;7.144;2023-07-20T11:46:51;0.43;;;0.30;;
31732;SDS011;18312;51.486;7.144;2023-07-20T11:49:25;2.33;;;0.40;;
31732;SDS011;18312;51.486;7.144;2023-07-20T11:51:53;0.70;;;0.35;;
31732;SDS011;18312;51.486;7.144;2023-07-20T11:54:20;1.60;;;0.65;;
31732;SDS011;18312;51.486;7.144;2023-07-20T11:56:46;1.00;;;0.40;;
31732;SDS011;18312;51.486;7.144;2023-07-20T11:59:14;0.98;;;0.38;;
31732;SDS011;18312;51.486;7.144;2023-07-20T12:01:44;3.17;;;0.77;;
31732;SDS011;18312;51.486;7.144;2023-07-20T12:04:11;0.70;;;0.52;;
31732;SDS011;18312;51.486;7.144;2023-07-20T12:06:38;0.55;;;0.40;;
31732;SDS011;18312;51.486;7.144;2023-07-20T12:09:05;1.90;;;0.63;;
31732;SDS011;18312;51.486;7.144;2023-07-20T12:11:32;0.77;;;0.40;;
31732;SDS011;18312;51.486;7.144;2023-07-20T12:14:00;2.88;;;0.50;;
31732;SDS011;18312;51.486;7.144;2023-07-20T12:16:28;0.93;;;0.45;;
31732;SDS011;18312;51.486;7.144;2023-07-20T12:18:59;0.82;;;0.50;;
31732;SDS011;18312;51.486;7.144;2023-07-20T12:21:27;2.20;;;0.55;;
31732;SDS011;18312;51.486;7.144;2023-07-20T12:23:56;0.93;;;0.80;;
31732;SDS011;18312;51.486;7.144;2023-07-20T12:26:23;1.10;;;0.55;;
31732;SDS011;18312;51.486;7.144;2023-07-20T12:28:52;2.23;;;0.53;;
31732;SDS011;18312;51.486;7.144;2023-07-20T12:31:19;0.80;;;0.80;;
31732;SDS011;18312;51.486;7.144;2023-07-20T12:33:47;0.90;;;0.52;;
31732;SDS011;18312;51.486;7.144;2023-07-20T12:36:14;1.38;;;0.80;;
31732;SDS011;18312;51.486;7.144;2023-07-20T12:38:41;0.68;;;0.47;;
31732;SDS011;18312;51.486;7.144;2023-07-20T12:41:09;1.00;;;0.60;;
31732;SDS011;18312;51.486;7.144;2023-07-20T12:43:38;0.85;;;0.35;;
31732;SDS011;18312;51.486;7.144;2023-07-20T12:46:06;0.60;;;0.40;;
31732;SDS011;18312;51.486;7.144;2023-07-20T12:48:32;2.17;;;0.90;;
31732;SDS011;18312;51.486;7.144;2023-07-20T12:51:01;2.05;;;0.57;;
31732;SDS011;18312;51.486;7.144;2023-07-20T12:53:28;1.25;;;0.75;;
31732;SDS011;18312;51.486;7.144;2023-07-20T12:55:55;2.17;;;0.60;;
31732;SDS011;18312;51.486;7.144;2023-07-20T12:58:21;0.60;;;0.40;;
31732;SDS011;18312;51.486;7.144;2023-07-20T13:00:48;0.80;;;0.40;;
31732;SDS011;18312;51.486;7.144;2023-07-20T13:03:16;0.98;;;0.50;;
31732;SDS011;18312;51.486;7.144;2023-07-20T13:05:44;1.15;;;0.90;;
31732;SDS011;18312;51.486;7.144;2023-07-20T13:08:12;0.75;;;0.60;;
31732;SDS011;18312;51.486;7.144;2023-07-20T13:10:39;2.10;;;1.00;;
31732;SDS011;18312;51.486;7.144;2023-07-20T13:13:06;2.20;;;0.85;;
31732;SDS011;18312;51.486;7.144;2023-07-20T13:15:40;0.60;;;0.60;;
31732;SDS011;18312;51.486;7.144;2023-07-20T13:18:08;0.70;;;0.70;;
31732;SDS011;18312;51.486;7.144;2023-07-20T13:20:34;2.05;;;0.60;;
31732;SDS011;18312;51.486;7.144;2023-07-20T13:23:01;2.13;;;0.85;;
31732;SDS011;18312;51.486;7.144;2023-07-20T13:25:29;1.55;;;0.65;;
31732;SDS011;18312;51.486;7.144;2023-07-20T13:27:56;2.85;;;0.70;;
31732;SDS011;18312;51.486;7.144;2023-07-20T13:30:22;1.95;;;0.60;;
31732;SDS011;18312;51.486;7.144;2023-07-20T13:32:49;0.68;;;0.50;;
31732;SDS011;18312;51.486;7.144;2023-07-20T13:35:16;0.60;;;0.60;;
31732;SDS011;18312;51.486;7.144;2023-07-20T13:37:42;1.20;;;0.50;;
31732;SDS011;18312;51.486;7.144;2023-07-20T13:40:09;0.73;;;0.63;;
31732;SDS011;18312;51.486;7.144;2023-07-20T13:42:39;1.33;;;0.70;;
31732;SDS011;18312;51.486;7.144;2023-07-20T13:45:06;0.90;;;0.70;;
31732;SDS011;18312;51.486;7.144;2023-07-20T13:47:34;3.72;;;0.60;;
31732;SDS011;18312;51.486;7.144;2023-07-20T13:50:00;1.98;;;0.80;;
31732;SDS011;18312;51.486;7.144;2023-07-20T13:52:27;3.22;;;0.65;;
31732;SDS011;18312;51.486;7.144;2023-07-20T13:54:54;1.83;;;0.80;;
31732;SDS011;18312;51.486;7.144;2023-07-20T13:57:21;1.48;;;0.70;;
31732;SDS011;18312;51.486;7.144;2023-07-20T13:59:49;1.05;;;0.63;;
31732;SDS011;18312;51.486;7.144;2023-07-20T14:02:15;1.77;;;0.70;;
31732;SDS011;18312;51.486;7.144;2023-07-20T14:04:42;2.35;;;0.80;;
31732;SDS011;18312;51.486;7.144;2023-07-20T14:07:09;1.15;;;0.70;;
31732;SDS011;18312;51.486;7.144;2023-07-20T14:09:36;2.35;;;0.68;;
31732;SDS011;18312;51.486;7.144;2023-07-20T14:12:03;0.95;;;0.57;;
31732;SDS011;18312;51.486;7.144;2023-07-20T14:14:30;0.40;;;0.40;;
31732;SDS011;18312;51.486;7.144;2023-07-20T14:16:58;1.10;;;0.80;;
31732;SDS011;18312;51.486;7.144;2023-07-20T14:19:25;2.08;;;0.70;;
31732;SDS011;18312;51.486;7.144;2023-07-20T14:21:52;2.15;;;0.60;;
31732;SDS011;18312;51.486;7.144;2023-07-20T14:24:20;1.42;;;0.70;;
31732;SDS011;18312;51.486;7.144;2023-07-20T14:26:46;1.40;;;0.80;;
31732;SDS011;18312;51.486;7.144;2023-07-20T14:29:14;2.45;;;0.70;;
31732;SDS011;18312;51.486;7.144;2023-07-20T14:31:40;0.88;;;0.57;;
31732;SDS011;18312;51.486;7.144;2023-07-20T14:34:09;1.58;;;0.82;;
31732;SDS011;18312;51.486;7.144;2023-07-20T14:36:36;2.72;;;0.60;;
31732;SDS011;18312;51.486;7.144;2023-07-20T14:39:03;2.65;;;0.70;;
31732;SDS011;18312;51.486;7.144;2023-07-20T14:41:30;0.75;;;0.60;;
31732;SDS011;18312;51.486;7.144;2023-07-20T14:43:57;2.10;;;0.80;;
31732;SDS011;18312;51.486;7.144;2023-07-20T14:46:24;0.68;;;0.55;;
31732;SDS011;18312;51.486;7.144;2023-07-20T14:48:50;2.90;;;0.50;;
31732;SDS011;18312;51.486;7.144;2023-07-20T14:51:19;1.65;;;0.70;;
31732;SDS011;18312;51.486;7.144;2023-07-20T14:53:45;1.52;;;0.60;;
31732;SDS011;18312;51.486;7.144;2023-07-20T14:56:12;1.10;;;0.50;;
31732;SDS011;18312;51.486;7.144;2023-07-20T14:58:39;1.23;;;0.57;;
31732;SDS011;18312;51.486;7.144;2023-07-20T15:01:06;4.82;;;0.45;;